Time;durP1;ratioP1;P1;durP2;ratioP2;P2;SDS_P1;SDS_P2;PMS_P1;PMS_P2;Temp;Humidity;BMP_temperature;BMP_pressure;BME280_temperature;BME280_humidity;BME280_pressure;Samples;Min_cycle;Max_cycle;Signal;HPM_P1;HPM_P2
2024/01/20 00:01:06;;;;;;;37.70;19.02;;;-3.20;99.90;;;;;;5012426;28;20032;-49
2024/01/20 00:03:31;;;;;;;36.88;19.85;;;-3.20;99.90;;;;;;5013625;28;20036;-46
2024/01/20 00:05:57;;;;;;;40.60;21.27;;;-3.20;99.90;;;;;;5013207;28;20022;-46
2024/01/20 00:08:22;;;;;;;45.85;21.17;;;-3.20;99.90;;;;;;5012840;28;20076;-48
2024/01/20 00:10:48;;;;;;;45.42;21.90;;;-3.30;99.90;;;;;;5011736;28;20513;-46
2024/01/20 00:13:13;;;;;;;37.20;18.80;;;-3.30;99.90;;;;;;5013070;28;20030;-50
2024/01/20 00:15:39;;;;;;;42.75;20.13;;;-3.50;99.90;;;;;;5013154;28;20029;-47
2024/01/20 00:18:04;;;;;;;37.72;19.85;;;-3.40;99.90;;;;;;5012698;28;20515;-48
2024/01/20 00:20:30;;;;;;;38.72;21.23;;;-3.40;99.90;;;;;;5012780;28;20026;-46
2024/01/20 00:22:55;;;;;;;35.17;20.45;;;-3.50;99.90;;;;;;5012863;28;20030;-47
2024/01/20 00:25:21;;;;;;;36.30;20.38;;;-3.50;99.90;;;;;;5012195;28;20026;-46
2024/01/20 00:27:49;;;;;;;37.53;19.95;;;-3.50;99.90;;;;;;5013494;28;20042;-44
2024/01/20 00:30:16;;;;;;;39.90;20.73;;;-3.50;99.90;;;;;;5012903;28;20018;-49
2024/01/20 00:32:41;;;;;;;39.72;21.35;;;-3.50;99.90;;;;;;5013383;28;20041;-47
2024/01/20 00:35:07;;;;;;;40.47;21.65;;;-3.50;99.90;;;;;;5011369;28;20034;-45
2024/01/20 00:37:38;;;;;;;39.22;20.65;;;-3.60;99.90;;;;;;5012263;28;20049;-49
2024/01/20 00:40:04;;;;;;;51.85;21.05;;;-3.60;99.90;;;;;;5011526;28;20022;-49
2024/01/20 00:42:30;;;;;;;41.10;21.25;;;-3.60;99.90;;;;;;5013077;28;20101;-47
2024/01/20 00:44:56;;;;;;;43.60;19.05;;;-3.50;99.90;;;;;;5012865;28;20104;-45
2024/01/20 00:47:22;;;;;;;42.88;21.40;;;-3.60;99.90;;;;;;5027905;28;20092;-46
2024/01/20 00:49:47;;;;;;;43.35;20.55;;;-3.70;99.90;;;;;;5012355;28;20030;-46
2024/01/20 00:52:14;;;;;;;39.03;17.95;;;-3.70;99.90;;;;;;5010743;28;20026;-43
2024/01/20 00:54:39;;;;;;;38.92;18.55;;;-3.70;99.90;;;;;;5011071;28;20014;-43
2024/01/20 00:57:05;;;;;;;37.72;20.42;;;-3.70;99.90;;;;;;5012052;28;20483;-45
2024/01/20 00:59:30;;;;;;;38.03;19.00;;;-3.70;99.90;;;;;;5012454;28;20028;-41
2024/01/20 01:01:56;;;;;;;43.75;19.58;;;-3.70;99.90;;;;;;5012458;28;20025;-46
2024/01/20 01:04:21;;;;;;;35.05;19.80;;;-3.70;99.90;;;;;;5013263;28;20383;-43
2024/01/20 01:06:48;;;;;;;39.40;20.48;;;-3.80;99.90;;;;;;5014426;28;20113;-44
2024/01/20 01:09:14;;;;;;;38.75;19.85;;;-3.70;99.90;;;;;;5014758;28;20029;-44
2024/01/20 01:11:40;;;;;;;46.65;19.38;;;-3.70;99.90;;;;;;5013926;28;20088;-44
2024/01/20 01:14:05;;;;;;;38.92;19.73;;;-3.70;99.90;;;;;;5012731;28;20022;-44
2024/01/20 01:16:31;;;;;;;50.22;22.00;;;-3.70;99.90;;;;;;5012493;28;20045;-45
2024/01/20 01:18:56;;;;;;;44.88;20.55;;;-3.70;99.90;;;;;;5012664;28;20037;-44
2024/01/20 01:21:22;;;;;;;39.22;21.23;;;-3.70;99.90;;;;;;5011654;28;20092;-46
2024/01/20 01:23:47;;;;;;;45.70;21.23;;;-3.70;99.90;;;;;;5012211;28;20080;-46
2024/01/20 01:26:13;;;;;;;39.60;20.38;;;-3.80;99.90;;;;;;5011990;28;20041;-49
2024/01/20 01:28:38;;;;;;;41.65;22.65;;;-3.80;99.90;;;;;;5011737;28;20100;-46
2024/01/20 01:31:04;;;;;;;42.05;20.08;;;-3.80;99.90;;;;;;5011896;28;20041;-46
2024/01/20 01:33:29;;;;;;;45.58;21.35;;;-3.70;99.90;;;;;;5011973;28;20029;-48
2024/01/20 01:35:55;;;;;;;41.22;22.15;;;-3.70;99.90;;;;;;5012056;28;20050;-47
2024/01/20 01:38:20;;;;;;;45.33;20.27;;;-3.70;99.90;;;;;;5011342;28;20029;-48
2024/01/20 01:40:46;;;;;;;41.15;20.27;;;-3.70;99.90;;;;;;5012070;28;20025;-47
2024/01/20 01:43:11;;;;;;;42.70;21.52;;;-3.80;99.90;;;;;;5011780;28;20042;-44
2024/01/20 01:45:36;;;;;;;37.83;21.52;;;-4.00;99.90;;;;;;5012412;28;20030;-44
2024/01/20 01:48:02;;;;;;;47.65;21.23;;;-4.00;99.90;;;;;;5012602;28;20038;-45
2024/01/20 01:50:28;;;;;;;41.85;20.92;;;-4.00;99.90;;;;;;5013482;28;20030;-43
2024/01/20 01:52:54;;;;;;;37.53;20.42;;;-4.00;99.90;;;;;;5012789;28;20037;-42
2024/01/20 01:55:22;;;;;;;46.15;21.48;;;-3.90;99.90;;;;;;5012417;28;20036;-50
2024/01/20 01:57:55;;;;;;;40.58;19.90;;;-3.80;99.90;;;;;;5011398;28;20087;-48
2024/01/20 02:00:21;;;;;;;43.55;19.05;;;-3.90;99.90;;;;;;5026624;23;20038;-54
2024/01/20 02:02:46;;;;;;;42.72;21.10;;;-3.90;99.90;;;;;;5016654;28;20108;-57
2024/01/20 02:05:12;;;;;;;54.20;30.75;;;-4.00;99.90;;;;;;5016833;28;20026;-47
2024/01/20 02:07:39;;;;;;;50.15;23.27;;;-4.00;99.90;;;;;;5015427;28;20398;-46
2024/01/20 02:10:06;;;;;;;77.35;35.50;;;-4.10;99.90;;;;;;5014147;28;20042;-47
2024/01/20 02:12:34;;;;;;;47.95;23.17;;;-4.10;99.90;;;;;;5015857;28;20566;-51
2024/01/20 02:14:59;;;;;;;42.17;20.52;;;-4.20;99.90;;;;;;5015482;28;20048;-50
2024/01/20 02:17:25;;;;;;;42.60;23.08;;;-4.30;99.90;;;;;;5014995;28;20025;-50
2024/01/20 02:19:50;;;;;;;46.00;22.17;;;-4.40;99.90;;;;;;5030314;28;20030;-46
2024/01/20 02:22:16;;;;;;;41.58;20.15;;;-4.50;99.90;;;;;;5015201;28;20034;-48
2024/01/20 02:24:47;;;;;;;52.83;22.80;;;-4.60;99.90;;;;;;5015630;28;20045;-46
2024/01/20 02:27:13;;;;;;;39.22;21.83;;;-4.50;99.90;;;;;;5014870;28;20495;-50
2024/01/20 02:29:39;;;;;;;46.33;21.52;;;-4.50;99.90;;;;;;5015033;28;20037;-46
2024/01/20 02:32:05;;;;;;;40.85;20.38;;;-4.50;99.90;;;;;;5015143;28;20021;-47
2024/01/20 02:34:31;;;;;;;31.17;16.85;;;-4.60;99.90;;;;;;5015048;28;20028;-46
2024/01/20 02:36:57;;;;;;;41.80;20.88;;;-4.60;99.90;;;;;;5013425;28;20390;-46
2024/01/20 02:39:22;;;;;;;36.10;19.17;;;-4.60;99.90;;;;;;5014823;28;20037;-47
2024/01/20 02:41:48;;;;;;;35.10;19.17;;;-4.60;99.90;;;;;;5014773;28;20022;-49
2024/01/20 02:44:15;;;;;;;38.83;19.60;;;-4.60;99.90;;;;;;5014885;28;20030;-46
2024/01/20 02:46:40;;;;;;;37.47;19.67;;;-4.60;99.90;;;;;;5014467;28;20105;-47
2024/01/20 02:49:06;;;;;;;38.80;18.33;;;-4.40;99.90;;;;;;5029794;28;20065;-50
2024/01/20 02:51:31;;;;;;;38.70;19.35;;;-4.50;99.90;;;;;;5014609;28;20033;-45
2024/01/20 02:53:58;;;;;;;33.72;17.75;;;-4.60;99.90;;;;;;5014794;28;20026;-46
2024/01/20 02:56:24;;;;;;;46.70;19.38;;;-4.70;99.90;;;;;;5014254;28;20390;-52
2024/01/20 02:58:50;;;;;;;39.63;18.88;;;-4.60;99.90;;;;;;5014419;28;20026;-49
2024/01/20 03:01:16;;;;;;;32.92;18.13;;;-4.50;99.90;;;;;;5014262;28;20030;-47
2024/01/20 03:03:41;;;;;;;35.05;18.92;;;-4.60;99.90;;;;;;5014477;28;20065;-44
2024/01/20 03:06:07;;;;;;;35.75;19.45;;;-4.60;99.90;;;;;;5014352;28;20025;-47
2024/01/20 03:08:35;;;;;;;41.65;19.77;;;;;;;;;;5014088;28;20491;-49
2024/01/20 03:11:01;;;;;;;35.55;17.65;;;-4.60;99.90;;;;;;5014726;28;20500;-49
2024/01/20 03:13:26;;;;;;;34.33;18.05;;;-4.60;99.90;;;;;;5014299;28;20033;-47
2024/01/20 03:15:52;;;;;;;34.17;17.98;;;-4.60;99.90;;;;;;5014366;28;20594;-51
2024/01/20 03:18:17;;;;;;;36.90;18.88;;;-4.60;99.90;;;;;;5014252;28;20073;-48
2024/01/20 03:20:43;;;;;;;38.33;17.52;;;-4.60;99.90;;;;;;5013936;28;20026;-52
2024/01/20 03:23:08;;;;;;;39.22;18.83;;;-4.50;99.90;;;;;;5014250;28;20554;-47
2024/01/20 03:25:34;;;;;;;41.13;21.67;;;-4.40;99.90;;;;;;5014684;28;20034;-49
2024/01/20 03:27:59;;;;;;;43.97;18.92;;;-4.20;99.90;;;;;;5015493;28;20030;-51
2024/01/20 03:30:25;;;;;;;37.55;18.35;;;-4.20;99.90;;;;;;5014260;28;20499;-49
2024/01/20 03:32:51;;;;;;;34.53;18.63;;;-4.20;99.90;;;;;;5014730;28;20096;-47
2024/01/20 03:35:17;;;;;;;32.40;17.35;;;-4.30;99.90;;;;;;5014565;28;20440;-46
2024/01/20 03:37:43;;;;;;;35.50;18.35;;;;;;;;;;5013927;28;20083;-49
2024/01/20 03:40:08;;;;;;;33.90;17.90;;;-4.40;99.90;;;;;;5013918;28;20041;-48
2024/01/20 03:42:34;;;;;;;38.35;18.60;;;-4.60;99.90;;;;;;5013875;28;20136;-51
2024/01/20 03:44:59;;;;;;;36.25;17.48;;;-4.70;99.90;;;;;;5013960;28;20037;-47
2024/01/20 03:47:25;;;;;;;29.02;16.20;;;-4.80;99.90;;;;;;5013371;28;20029;-49
2024/01/20 03:49:50;;;;;;;32.55;17.00;;;-5.00;99.90;;;;;;5012251;28;20049;-50
2024/01/20 03:52:16;;;;;;;33.08;17.67;;;-5.00;99.90;;;;;;5013436;28;20399;-48
2024/01/20 03:54:42;;;;;;;44.60;18.73;;;-5.10;99.90;;;;;;5013628;28;20028;-46
2024/01/20 03:57:08;;;;;;;33.60;18.88;;;-5.20;99.90;;;;;;5013169;28;20030;-49
2024/01/20 03:59:33;;;;;;;35.03;18.00;;;-5.10;99.90;;;;;;5012259;28;20113;-50
2024/01/20 04:01:59;;;;;;;30.58;16.77;;;-5.00;99.90;;;;;;5012041;28;20104;-49
2024/01/20 04:04:24;;;;;;;36.58;16.60;;;-5.00;99.90;;;;;;5013328;28;20028;-50
2024/01/20 04:06:50;;;;;;;38.67;18.75;;;-4.80;99.90;;;;;;5028024;28;20129;-49
2024/01/20 04:09:15;;;;;;;37.15;19.15;;;-4.90;99.90;;;;;;5011805;28;20037;-46
2024/01/20 04:11:41;;;;;;;29.27;17.42;;;-5.00;99.90;;;;;;5013342;28;20084;-55
2024/01/20 04:14:06;;;;;;;39.25;18.25;;;-4.90;99.90;;;;;;5013440;28;20098;-50
2024/01/20 04:16:32;;;;;;;39.08;18.25;;;-4.90;99.90;;;;;;5013074;28;20029;-50
2024/01/20 04:18:57;;;;;;;28.48;17.55;;;-4.90;99.90;;;;;;5013062;28;20034;-49
2024/01/20 04:21:23;;;;;;;37.38;17.52;;;-5.10;99.90;;;;;;5013306;28;20452;-50
2024/01/20 04:23:51;;;;;;;29.08;16.02;;;-5.00;99.90;;;;;;5013516;28;20025;-49
2024/01/20 04:26:17;;;;;;;35.42;18.75;;;-5.00;99.90;;;;;;5013326;28;20029;-52
2024/01/20 04:28:42;;;;;;;39.90;18.85;;;-4.80;99.90;;;;;;5011343;28;20471;-48
2024/01/20 04:31:08;;;;;;;41.17;18.80;;;-4.70;99.90;;;;;;5011615;28;20029;-47
2024/01/20 04:33:36;;;;;;;37.83;19.48;;;-4.60;99.90;;;;;;5013518;28;20038;-54
2024/01/20 04:36:03;;;;;;;42.17;20.38;;;-4.50;99.90;;;;;;5013123;28;20542;-52
2024/01/20 04:38:28;;;;;;;46.22;20.05;;;-4.50;99.90;;;;;;5011452;28;20116;-49
2024/01/20 04:40:54;;;;;;;44.72;20.65;;;-4.50;99.90;;;;;;5012872;28;20105;-53
2024/01/20 04:43:20;;;;;;;36.75;17.40;;;-4.50;99.90;;;;;;5011934;28;20025;-50
2024/01/20 04:45:45;;;;;;;37.08;17.60;;;-4.50;99.90;;;;;;5012792;28;20081;-47
2024/01/20 04:48:11;;;;;;;35.30;17.88;;;-4.40;99.90;;;;;;5011141;28;20171;-47
2024/01/20 04:50:36;;;;;;;31.15;16.25;;;-4.50;99.90;;;;;;5011271;28;20029;-51
2024/01/20 04:53:02;;;;;;;33.55;16.33;;;-4.50;99.90;;;;;;5012717;28;20503;-52
2024/01/20 04:55:27;;;;;;;37.45;18.40;;;-4.50;99.90;;;;;;5012771;28;20018;-51
2024/01/20 04:57:53;;;;;;;45.20;19.40;;;-4.50;99.90;;;;;;5012615;28;20097;-47
2024/01/20 05:00:18;;;;;;;42.28;19.58;;;-4.30;99.90;;;;;;5012432;28;20030;-52
2024/01/20 05:02:44;;;;;;;37.28;18.13;;;-4.40;99.90;;;;;;5027899;28;20036;-51
2024/01/20 05:05:09;;;;;;;39.33;17.35;;;-4.50;99.90;;;;;;5012560;28;20036;-49
2024/01/20 05:07:35;;;;;;;40.58;18.90;;;-4.60;99.90;;;;;;5010903;28;20088;-52
2024/01/20 05:10:00;;;;;;;40.75;17.27;;;-4.80;99.90;;;;;;5011166;28;20057;-47
2024/01/20 05:12:26;;;;;;;43.10;18.33;;;-4.70;99.90;;;;;;5012408;28;20072;-47
2024/01/20 05:14:55;;;;;;;48.22;22.90;;;-4.80;99.90;;;;;;5011065;28;20060;-49
2024/01/20 05:17:21;;;;;;;40.17;17.85;;;-4.90;99.90;;;;;;5012133;28;20030;-49
2024/01/20 05:19:47;;;;;;;42.13;19.73;;;-4.80;99.90;;;;;;5012377;28;20026;-47
2024/01/20 05:22:12;;;;;;;38.03;19.13;;;-4.80;99.90;;;;;;5011195;28;20033;-49
2024/01/20 05:24:38;;;;;;;38.80;18.60;;;-4.90;99.90;;;;;;5011161;28;20528;-47
2024/01/20 05:27:04;;;;;;;40.45;19.13;;;-5.00;99.90;;;;;;5010607;28;20057;-52
2024/01/20 05:29:29;;;;;;;40.65;18.50;;;-4.90;99.90;;;;;;5012016;28;20112;-47
2024/01/20 05:31:55;;;;;;;31.90;17.70;;;-4.90;99.90;;;;;;5012001;28;20136;-47
2024/01/20 05:34:20;;;;;;;42.13;18.25;;;-4.90;99.90;;;;;;5010919;28;20399;-47
2024/01/20 05:36:46;;;;;;;32.30;15.15;;;-5.00;99.90;;;;;;5011779;28;20022;-50
2024/01/20 05:39:11;;;;;;;28.48;15.07;;;-5.00;99.90;;;;;;5012096;28;20030;-47
2024/01/20 05:41:37;;;;;;;26.70;14.43;;;-4.90;99.90;;;;;;5012678;28;20057;-48
2024/01/20 05:44:02;;;;;;;29.52;15.60;;;-5.00;99.90;;;;;;5012591;28;20026;-51
2024/01/20 05:46:28;;;;;;;34.08;16.48;;;-5.00;99.90;;;;;;5012046;28;20105;-57
2024/01/20 05:48:54;;;;;;;29.40;14.90;;;-4.90;99.90;;;;;;5012428;28;20026;-51
2024/01/20 05:51:19;;;;;;;31.38;15.43;;;-4.90;99.90;;;;;;5012160;28;20030;-54
2024/01/20 05:53:45;;;;;;;27.80;14.85;;;-5.00;99.90;;;;;;5012193;28;20491;-50
2024/01/20 05:56:11;;;;;;;23.50;13.75;;;-5.00;99.90;;;;;;5011632;28;20040;-50
2024/01/20 05:58:36;;;;;;;23.92;13.68;;;-5.10;99.90;;;;;;5010582;28;20022;-54
2024/01/20 06:01:02;;;;;;;28.58;14.57;;;-5.10;99.90;;;;;;5011646;28;20046;-50
2024/01/20 06:03:27;;;;;;;28.05;14.15;;;-5.00;99.90;;;;;;5011933;28;20495;-51
2024/01/20 06:05:53;;;;;;;28.48;14.32;;;-4.90;99.90;;;;;;5011944;28;20030;-49
2024/01/20 06:08:19;;;;;;;24.65;13.30;;;-5.00;99.90;;;;;;5011443;28;20084;-51
2024/01/20 06:10:45;;;;;;;26.08;13.57;;;-5.10;99.90;;;;;;5010352;28;20049;-49
2024/01/20 06:13:10;;;;;;;28.42;14.23;;;-5.20;99.90;;;;;;5011911;28;20507;-48
2024/01/20 06:15:36;;;;;;;27.23;13.88;;;-5.20;99.90;;;;;;5010580;28;20491;-50
2024/01/20 06:18:02;;;;;;;32.33;15.00;;;-5.10;99.90;;;;;;5026894;28;20018;-53
2024/01/20 06:20:28;;;;;;;30.15;15.02;;;-5.20;99.90;;;;;;5011664;28;20391;-50
2024/01/20 06:22:53;;;;;;;28.83;13.43;;;-5.10;99.90;;;;;;5011654;28;20030;-46
2024/01/20 06:25:19;;;;;;;33.15;17.23;;;-5.00;99.90;;;;;;5010396;28;20026;-48
2024/01/20 06:27:44;;;;;;;27.80;14.02;;;-5.10;99.90;;;;;;5011226;28;20056;-47
2024/01/20 06:30:10;;;;;;;23.55;13.00;;;-5.00;99.90;;;;;;5011235;28;20080;-52
2024/01/20 06:32:36;;;;;;;51.90;16.70;;;-5.00;99.90;;;;;;5011573;28;20018;-54
2024/01/20 06:35:01;;;;;;;25.98;13.88;;;-5.00;99.90;;;;;;5010394;28;20388;-50
2024/01/20 06:37:27;;;;;;;32.10;13.75;;;-5.10;99.90;;;;;;5011162;28;20068;-48
2024/01/20 06:39:52;;;;;;;27.63;15.00;;;-4.80;99.90;;;;;;5011231;28;20038;-49
2024/01/20 06:42:18;;;;;;;29.55;13.85;;;-4.90;99.90;;;;;;5011383;28;20030;-45
2024/01/20 06:44:43;;;;;;;26.27;14.52;;;-4.80;99.90;;;;;;5011407;28;20075;-49
2024/01/20 06:47:09;;;;;;;37.78;15.57;;;-4.80;99.90;;;;;;5011277;28;20029;-46
2024/01/20 06:49:41;;;;;;;32.78;16.13;;;-5.00;99.90;;;;;;5011446;28;20105;-50
2024/01/20 06:52:07;;;;;;;32.42;15.35;;;-5.00;99.90;;;;;;5014162;28;20407;-52
2024/01/20 06:54:32;;;;;;;36.75;15.88;;;-5.10;99.90;;;;;;5013454;28;20022;-51
2024/01/20 06:56:58;;;;;;;39.90;16.60;;;-5.00;99.90;;;;;;5014462;28;20029;-47
2024/01/20 06:59:23;;;;;;;36.72;18.30;;;-5.00;99.90;;;;;;5013483;28;20104;-48
2024/01/20 07:01:49;;;;;;;33.63;16.30;;;-4.80;99.90;;;;;;5029572;28;20483;-50
2024/01/20 07:04:14;;;;;;;38.00;18.08;;;-5.00;99.90;;;;;;5014718;28;20022;-45
2024/01/20 07:06:40;;;;;;;35.03;16.55;;;-5.10;99.90;;;;;;5013005;28;20022;-50
2024/01/20 07:09:05;;;;;;;38.95;16.73;;;-5.10;99.90;;;;;;5014488;28;20041;-48
2024/01/20 07:11:32;;;;;;;51.38;19.92;;;-5.00;99.90;;;;;;5014497;28;20509;-52
2024/01/20 07:13:57;;;;;;;38.58;15.90;;;-5.00;99.90;;;;;;5014708;28;20025;-53
2024/01/20 07:16:23;;;;;;;39.83;17.65;;;-5.10;99.90;;;;;;5029567;28;20032;-49
2024/01/20 07:18:49;;;;;;;43.45;17.52;;;-5.30;99.90;;;;;;5014662;28;20025;-46
2024/01/20 07:21:14;;;;;;;38.15;18.88;;;-5.30;99.90;;;;;;5014446;28;20053;-48
2024/01/20 07:23:40;;;;;;;41.60;18.10;;;-5.30;99.90;;;;;;5014518;28;20021;-52
2024/01/20 07:26:05;;;;;;;41.42;17.33;;;-5.30;99.90;;;;;;5012975;28;20065;-48
2024/01/20 07:28:31;;;;;;;43.65;18.55;;;-5.30;99.90;;;;;;5014043;28;20041;-47
2024/01/20 07:30:57;;;;;;;41.03;17.90;;;-5.10;99.90;;;;;;5013193;28;20032;-48
2024/01/20 07:33:22;;;;;;;38.03;17.20;;;-5.00;99.90;;;;;;5014410;28;20479;-50
2024/01/20 07:35:48;;;;;;;34.67;17.00;;;-4.90;99.90;;;;;;5014208;28;20026;-50
2024/01/20 07:38:14;;;;;;;42.28;17.08;;;-4.90;99.90;;;;;;5013991;28;20030;-48
2024/01/20 07:40:39;;;;;;;37.25;17.17;;;-4.80;99.90;;;;;;5012974;28;20022;-52
2024/01/20 07:43:05;;;;;;;46.75;18.85;;;-4.80;99.90;;;;;;5013122;28;20084;-51
2024/01/20 07:45:31;;;;;;;39.15;17.42;;;-4.70;99.90;;;;;;5014078;28;20037;-52
2024/01/20 07:47:57;;;;;;;43.08;17.27;;;-4.70;99.90;;;;;;5014053;28;20510;-53
2024/01/20 07:50:23;;;;;;;40.40;17.17;;;-4.60;99.90;;;;;;5013904;28;20502;-51
2024/01/20 07:52:48;;;;;;;39.38;17.90;;;-4.50;99.90;;;;;;5013658;28;20089;-46
2024/01/20 07:55:14;;;;;;;40.55;19.35;;;-4.50;99.90;;;;;;5013000;28;20034;-46
2024/01/20 07:57:40;;;;;;;35.65;17.25;;;-4.40;99.90;;;;;;5013693;28;20048;-50
2024/01/20 08:00:06;;;;;;;40.97;18.77;;;-4.20;99.90;;;;;;5013920;28;20029;-50
2024/01/20 08:02:32;;;;;;;37.72;17.83;;;-4.10;99.90;;;;;;5013201;23;20041;-46
2024/01/20 08:04:57;;;;;;;36.35;16.48;;;-4.10;99.90;;;;;;4992691;28;20026;-46
2024/01/20 08:07:23;;;;;;;36.45;16.85;;;-4.00;99.90;;;;;;5012399;28;20499;-51
2024/01/20 08:09:48;;;;;;;43.33;18.50;;;-3.90;99.90;;;;;;5009493;28;20030;-45
2024/01/20 08:12:14;;;;;;;38.60;15.88;;;-4.00;99.90;;;;;;4976329;28;20033;-43
2024/01/20 08:14:39;;;;;;;43.17;19.67;;;-4.00;99.90;;;;;;4993704;28;20399;-50
2024/01/20 08:17:05;;;;;;;42.03;19.05;;;-3.90;99.90;;;;;;4975960;28;20185;-44
2024/01/20 08:19:30;;;;;;;39.00;16.85;;;-3.80;99.90;;;;;;4976083;28;20394;-50
2024/01/20 08:21:55;;;;;;;45.00;18.95;;;-3.90;99.90;;;;;;4994350;28;20039;-49
2024/01/20 08:24:21;;;;;;;40.00;18.05;;;-4.00;99.90;;;;;;4993999;28;20022;-50
2024/01/20 08:26:47;;;;;;;44.05;19.88;;;-3.90;99.90;;;;;;4994948;28;20082;-46
2024/01/20 08:29:12;;;;;;;41.13;18.08;;;-3.80;99.90;;;;;;4994983;28;20396;-51
2024/01/20 08:31:38;;;;;;;45.05;19.30;;;-3.90;99.90;;;;;;4993333;28;20018;-45
2024/01/20 08:34:03;;;;;;;32.65;16.17;;;-3.90;99.90;;;;;;4993772;28;20036;-48
2024/01/20 08:36:29;;;;;;;35.78;16.00;;;-4.00;99.90;;;;;;4993035;28;20496;-43
2024/01/20 08:38:55;;;;;;;35.50;16.20;;;-4.10;99.90;;;;;;4993623;28;20023;-48
2024/01/20 08:41:20;;;;;;;40.63;17.55;;;-4.00;99.90;;;;;;4992927;28;20030;-45
2024/01/20 08:43:47;;;;;;;37.13;16.85;;;-4.00;99.90;;;;;;4976032;28;20511;-50
2024/01/20 08:46:13;;;;;;;34.97;18.08;;;-3.80;99.90;;;;;;4993431;28;20499;-47
2024/01/20 08:48:39;;;;;;;47.67;18.17;;;-3.80;99.90;;;;;;4975152;28;20034;-46
2024/01/20 08:51:04;;;;;;;40.88;17.27;;;-3.70;99.90;;;;;;4975244;28;20514;-45
2024/01/20 08:53:32;;;;;;;39.97;18.27;;;-3.60;99.90;;;;;;4992783;28;20030;-45
2024/01/20 08:55:58;;;;;;;39.78;17.25;;;-3.70;99.90;;;;;;4975267;28;20018;-47
2024/01/20 08:58:24;;;;;;;41.33;16.98;;;-3.80;99.90;;;;;;4992832;28;20399;-45
2024/01/20 09:00:49;;;;;;;35.63;16.60;;;-3.70;99.90;;;;;;4992880;28;20144;-47
2024/01/20 09:03:16;;;;;;;41.13;18.92;;;-3.70;99.90;;;;;;4992717;28;20041;-45
2024/01/20 09:05:41;;;;;;;40.47;17.70;;;-3.50;99.90;;;;;;4992799;28;20050;-47
2024/01/20 09:08:09;;;;;;;39.65;17.23;;;-3.30;99.90;;;;;;4992877;28;20562;-47
2024/01/20 09:10:36;;;;;;;42.33;17.48;;;-3.20;99.90;;;;;;4992792;28;20026;-51
2024/01/20 09:13:02;;;;;;;46.33;18.90;;;-3.20;99.90;;;;;;4992686;28;20507;-46
2024/01/20 09:15:27;;;;;;;39.17;16.67;;;-3.20;99.90;;;;;;4975041;28;20084;-45
2024/01/20 09:17:53;;;;;;;39.40;17.23;;;-3.30;99.90;;;;;;4992248;28;20031;-46
2024/01/20 09:20:19;;;;;;;38.28;17.55;;;-3.40;99.90;;;;;;4992531;28;20030;-42
2024/01/20 09:22:46;;;;;;;39.20;16.67;;;-3.60;99.90;;;;;;4992464;28;20030;-43
2024/01/20 09:25:11;;;;;;;40.72;16.67;;;-3.70;99.90;;;;;;4974857;28;20559;-46
2024/01/20 09:27:37;;;;;;;37.40;15.40;;;-3.70;99.90;;;;;;4992065;28;20131;-43
2024/01/20 09:30:04;;;;;;;31.77;15.27;;;-3.60;99.90;;;;;;4993239;28;20027;-45
2024/01/20 09:32:33;;;;;;;35.63;18.30;;;-3.70;99.90;;;;;;4992757;28;20240;-44
2024/01/20 09:35:02;;;;;;;37.58;17.60;;;-3.50;99.90;;;;;;4992677;28;20026;-47
2024/01/20 09:37:29;;;;;;;40.63;15.63;;;-3.40;99.90;;;;;;4992493;28;20018;-45
2024/01/20 09:39:55;;;;;;;36.08;14.70;;;-3.20;99.90;;;;;;4992616;28;20038;-42
2024/01/20 09:42:21;;;;;;;32.63;16.08;;;-3.30;99.90;;;;;;4992153;28;20030;-43
2024/01/20 09:44:47;;;;;;;36.13;15.63;;;-3.40;99.90;;;;;;4992243;28;20100;-50
2024/01/20 09:47:13;;;;;;;35.67;17.10;;;-3.30;99.90;;;;;;4992488;28;20447;-47
2024/01/20 09:49:38;;;;;;;43.85;19.05;;;-3.20;99.90;;;;;;4992331;28;20085;-45
2024/01/20 09:52:12;;;;;;;35.30;17.05;;;-3.10;99.90;;;;;;4992189;28;20472;-48
2024/01/20 09:54:58;;;;;;;38.38;19.50;;;-3.00;99.90;;;;;;4992124;28;20129;-45
2024/01/20 09:57:24;;;;;;;39.90;18.52;;;-3.10;99.90;;;;;;4991834;28;20019;-45
2024/01/20 09:59:51;;;;;;;37.70;17.42;;;-3.10;99.90;;;;;;4992093;28;20037;-52
2024/01/20 10:02:19;;;;;;;46.70;20.17;;;-3.00;99.90;;;;;;4991956;28;20034;-42
2024/01/20 10:04:48;;;;;;;40.15;17.60;;;-2.90;99.90;;;;;;4975090;28;20019;-46
2024/01/20 10:07:30;;;;;;;41.00;18.75;;;-2.70;99.90;;;;;;4974651;28;20532;-43
2024/01/20 10:09:56;;;;;;;44.25;18.85;;;-2.60;99.90;;;;;;4974870;28;20034;-50
2024/01/20 10:12:24;;;;;;;39.83;21.48;;;-2.60;99.90;;;;;;4992651;28;20026;-49
2024/01/20 10:14:51;;;;;;;49.15;20.38;;;-2.70;99.90;;;;;;4991999;28;20054;-50
2024/01/20 10:17:17;;;;;;;45.88;20.40;;;-2.60;99.90;;;;;;4992319;28;20030;-46
2024/01/20 10:19:42;;;;;;;53.47;19.63;;;-2.60;99.90;;;;;;4992039;28;20455;-47
2024/01/20 10:22:09;;;;;;;46.53;19.00;;;-2.50;99.90;;;;;;4974431;28;20407;-47
2024/01/20 10:24:34;;;;;;;43.25;18.67;;;-2.60;99.90;;;;;;4974372;28;20081;-45
2024/01/20 10:27:02;;;;;;;55.78;18.13;;;-2.70;99.90;;;;;;4995204;28;20395;-44
2024/01/20 10:29:28;;;;;;;41.25;18.42;;;-2.80;99.90;;;;;;4995682;28;20376;-44
2024/01/20 10:31:54;;;;;;;42.75;19.80;;;-2.80;99.90;;;;;;4995826;28;20023;-41
2024/01/20 10:34:20;;;;;;;42.45;19.67;;;-2.90;99.90;;;;;;4996138;28;20023;-46
2024/01/20 10:36:48;;;;;;;50.78;20.35;;;-2.90;99.90;;;;;;4995234;28;20058;-40
2024/01/20 10:39:19;;;;;;;47.70;19.02;;;-2.70;99.90;;;;;;4995181;28;20140;-46
2024/01/20 10:41:48;;;;;;;79.90;22.70;;;-2.80;99.90;;;;;;4995434;28;20019;-46
2024/01/20 10:44:16;;;;;;;45.05;22.15;;;-2.70;99.90;;;;;;4995256;28;20022;-45
2024/01/20 10:46:46;;;;;;;45.00;19.35;;;-2.60;99.90;;;;;;4995094;28;20395;-48
2024/01/20 10:49:17;;;;;;;42.72;19.27;;;-2.50;99.90;;;;;;4994276;28;20033;-43
2024/01/20 10:51:44;;;;;;;47.53;21.33;;;-2.50;99.90;;;;;;4995233;28;20022;-45
2024/01/20 10:54:12;;;;;;;61.50;22.60;;;-2.60;99.90;;;;;;4995371;28;20026;-46
2024/01/20 10:56:38;;;;;;;45.95;19.02;;;-2.80;99.90;;;;;;4995499;28;20019;-46
2024/01/20 10:59:11;;;;;;;49.20;19.20;;;-2.70;99.90;;;;;;4995456;28;20030;-43
2024/01/20 11:01:38;;;;;;;48.08;19.08;;;-2.90;99.90;;;;;;4994962;28;20044;-44
2024/01/20 11:04:03;;;;;;;43.88;21.17;;;-2.90;99.90;;;;;;4995165;28;20085;-46
2024/01/20 11:06:29;;;;;;;39.75;19.73;;;-2.90;99.90;;;;;;4995845;28;20034;-46
2024/01/20 11:08:55;;;;;;;40.47;20.10;;;-3.00;99.90;;;;;;4995369;28;20027;-43
2024/01/20 11:11:27;;;;;;;31.33;18.60;;;-2.70;99.90;;;;;;4994251;28;20022;-47
2024/01/20 11:14:00;;;;;;;59.30;23.95;;;-2.60;99.90;;;;;;4995040;28;20439;-47
2024/01/20 11:16:32;;;;;;;120.85;58.78;;;-2.50;99.90;;;;;;4994642;28;20076;-40
2024/01/20 11:19:07;;;;;;;52.67;22.55;;;-2.50;99.90;;;;;;4994383;28;20487;-44
2024/01/20 11:21:33;;;;;;;41.25;19.35;;;-2.30;99.90;;;;;;4995076;28;20162;-46
2024/01/20 11:23:59;;;;;;;42.05;19.05;;;-2.20;99.90;;;;;;4996401;28;20022;-47
2024/01/20 11:26:33;;;;;;;43.15;18.25;;;-2.20;99.90;;;;;;4995363;28;20502;-42
2024/01/20 11:28:59;;;;;;;52.55;22.10;;;-2.30;99.90;;;;;;4994470;28;20034;-44
2024/01/20 11:31:26;;;;;;;42.45;19.67;;;-2.20;99.90;;;;;;4994243;28;20034;-45
2024/01/20 11:33:52;;;;;;;47.92;21.80;;;-2.20;99.90;;;;;;4994410;28;20027;-47
2024/01/20 11:36:18;;;;;;;38.03;19.67;;;-2.50;99.90;;;;;;4994235;28;20074;-45
2024/01/20 11:38:45;;;;;;;42.97;18.75;;;-2.40;99.90;;;;;;4976697;28;20030;-47
2024/01/20 11:41:10;;;;;;;37.20;17.83;;;-2.40;99.90;;;;;;4994383;28;20084;-46
2024/01/20 11:43:36;;;;;;;40.10;20.25;;;-2.30;99.90;;;;;;4994804;28;20109;-44
2024/01/20 11:46:03;;;;;;;51.30;19.98;;;-2.50;99.90;;;;;;4992539;28;20034;-43
2024/01/20 11:48:29;;;;;;;38.33;18.95;;;-2.30;99.90;;;;;;4993951;28;20105;-47
2024/01/20 11:50:55;;;;;;;39.65;18.90;;;-2.30;99.90;;;;;;4976230;28;20034;-44
2024/01/20 11:53:21;;;;;;;50.95;19.48;;;-2.20;99.90;;;;;;4994229;28;20022;-41
2024/01/20 11:55:58;;;;;;;46.67;20.38;;;-2.30;99.90;;;;;;4976949;28;20023;-46
2024/01/20 11:58:24;;;;;;;40.83;19.10;;;-2.30;99.90;;;;;;4993472;28;20026;-47
2024/01/20 12:00:51;;;;;;;36.33;17.83;;;-2.30;99.90;;;;;;4960745;28;20036;-46
2024/01/20 12:03:17;;;;;;;41.90;20.30;;;-2.30;99.90;;;;;;4994204;28;20030;-47
2024/01/20 12:05:43;;;;;;;48.90;22.67;;;-2.40;99.90;;;;;;4994290;28;20073;-44
2024/01/20 12:08:09;;;;;;;42.42;20.75;;;-2.50;99.90;;;;;;4993645;28;20034;-46
2024/01/20 12:10:34;;;;;;;49.03;23.35;;;-2.40;99.90;;;;;;4993672;28;20480;-45
2024/01/20 12:13:02;;;;;;;42.08;20.52;;;-2.30;99.90;;;;;;4972718;28;20040;-46
2024/01/20 12:15:42;;;;;;;44.83;20.58;;;-2.30;99.90;;;;;;5013594;28;20105;-47
2024/01/20 12:18:08;;;;;;;45.20;22.40;;;-2.20;99.90;;;;;;4997381;28;20028;-45
2024/01/20 12:20:34;;;;;;;44.35;19.65;;;;;;;;;;5014024;28;20025;-44
2024/01/20 12:23:00;;;;;;;38.80;19.92;;;-1.90;99.90;;;;;;5016727;28;20061;-44